Time,TemperatureF,DewpointF,PressureIn,WindDirection,WindDirectionDegrees,WindSpeedMPH,WindSpeedGustMPH,Humidity,HourlyPrecipIn,Conditions,Clouds,dailyrainin,SoftwareType,DateUTC
2013-08-30 00:11:00,80.8,73.7,29.87,SSE,157,2.7,-999.0,79,-99.99,,,0.00,Acu-Link.com,2013-08-30 05:11:00,
2013-08-30 00:26:00,80.4,73.6,29.87,South,180,1.7,-999.0,80,-99.99,,,0.00,Acu-Link.com,2013-08-30 05:26:00,
2013-08-30 00:41:00,80.4,73.6,29.87,South,180,1.1,-999.0,80,-99.99,,,0.00,Acu-Link.com,2013-08-30 05:41:00,
2013-08-30 00:56:00,80.4,73.6,29.88,South,180,1.1,-999.0,80,-99.99,,,0.00,Acu-Link.com,2013-08-30 05:56:00,
2013-08-30 01:11:00,80.4,73.6,29.87,ESE,112,2.2,-999.0,80,-99.99,,,0.00,Acu-Link.com,2013-08-30 06:11:00,
2013-08-30 01:26:00,80.2,73.8,29.87,SSE,157,3.2,-999.0,81,-99.99,,,0.00,Acu-Link.com,2013-08-30 06:26:00,
2013-08-30 01:41:00,80.1,73.7,29.87,South,180,0.0,-999.0,81,-99.99,,,0.00,Acu-Link.com,2013-08-30 06:41:00,
2013-08-30 01:56:00,79.9,73.5,29.85,South,180,2.2,-999.0,81,-99.99,,,0.00,Acu-Link.com,2013-08-30 06:56:00,
2013-08-30 02:11:00,79.9,73.9,29.84,SSE,157,2.7,-999.0,82,-99.99,,,0.00,Acu-Link.com,2013-08-30 07:11:00,
2013-08-30 02:27:00,79.7,73.7,29.86,South,180,2.2,-999.0,82,-99.99,,,0.00,Acu-Link.com,2013-08-30 07:27:00,
2013-08-30 02:42:00,79.5,73.5,29.87,SSE,157,1.7,-999.0,82,-99.99,,,0.00,Acu-Link.com,2013-08-30 07:42:00,
2013-08-30 02:57:00,79.3,73.7,29.87,SSE,157,2.2,-999.0,83,-99.99,,,0.00,Acu-Link.com,2013-08-30 07:57:00,
2013-08-30 03:13:00,79.2,73.6,29.86,South,180,1.1,-999.0,83,-99.99,,,0.00,Acu-Link.com,2013-08-30 08:13:00,
2013-08-30 03:29:00,79.2,73.6,29.85,South,180,1.7,-999.0,83,-99.99,,,0.00,Acu-Link.com,2013-08-30 08:29:00,
2013-08-30 03:44:00,79.2,73.6,29.84,South,180,0.0,-999.0,83,-99.99,,,0.00,Acu-Link.com,2013-08-30 08:44:00,
2013-08-30 03:59:00,78.8,73.5,29.86,SSE,157,0.0,-999.0,84,-99.99,,,0.00,Acu-Link.com,2013-08-30 08:59:00,
2013-08-30 04:14:00,78.3,73.4,29.87,South,180,0.0,-999.0,85,-99.99,,,0.00,Acu-Link.com,2013-08-30 09:14:00,
2013-08-30 04:29:00,77.7,73.2,29.86,SSW,202,0.0,-999.0,86,-99.99,,,0.00,Acu-Link.com,2013-08-30 09:29:00,
2013-08-30 04:44:00,77.0,73.2,29.83,South,180,0.0,-999.0,88,-99.99,,,0.00,Acu-Link.com,2013-08-30 09:44:00,
2013-08-30 04:59:00,76.6,73.1,29.85,South,180,0.0,-999.0,89,-99.99,,,0.00,Acu-Link.com,2013-08-30 09:59:00,
2013-08-30 05:15:00,76.3,73.1,29.86,NNW,337,0.0,-999.0,90,-99.99,,,0.00,Acu-Link.com,2013-08-30 10:15:00,
2013-08-30 05:30:00,76.5,73.7,29.85,South,180,0.0,-999.0,91,-99.99,,,0.00,Acu-Link.com,2013-08-30 10:30:00,
2013-08-30 05:45:00,76.3,73.5,29.83,South,180,0.0,-999.0,91,-99.99,,,0.00,Acu-Link.com,2013-08-30 10:45:00,
2013-08-30 06:00:00,75.9,73.4,29.83,SSW,202,0.0,-999.0,92,-99.99,,,0.00,Acu-Link.com,2013-08-30 11:00:00,
2013-08-30 06:15:00,75.9,73.4,29.86,West,270,0.0,-999.0,92,-99.99,,,0.00,Acu-Link.com,2013-08-30 11:15:00,
2013-08-30 06:30:00,75.7,73.2,29.87,WSW,247,1.1,-999.0,92,-99.99,,,0.00,Acu-Link.com,2013-08-30 11:30:00,
2013-08-30 06:45:00,75.6,73.1,29.85,West,270,1.1,-999.0,92,-99.99,,,0.00,Acu-Link.com,2013-08-30 11:45:00,
2013-08-30 07:00:00,75.6,73.1,29.84,West,270,0.0,-999.0,92,-99.99,,,0.00,Acu-Link.com,2013-08-30 12:00:00,
2013-08-30 07:15:00,75.6,73.1,29.84,SW,225,0.0,-999.0,92,-99.99,,,0.00,Acu-Link.com,2013-08-30 12:15:00,
2013-08-30 07:31:00,75.4,72.9,29.84,West,270,2.2,-999.0,92,-99.99,,,0.00,Acu-Link.com,2013-08-30 12:31:00,
2013-08-30 07:46:00,75.6,73.1,29.84,SW,225,0.0,-999.0,92,-99.99,,,0.00,Acu-Link.com,2013-08-30 12:46:00,
2013-08-30 08:01:00,76.3,73.8,29.86,West,270,1.7,-999.0,92,-99.99,,,0.00,Acu-Link.com,2013-08-30 13:01:00,
2013-08-30 08:16:00,77.0,74.5,29.85,WNW,292,1.7,-999.0,92,-99.99,,,0.00,Acu-Link.com,2013-08-30 13:16:00,
2013-08-30 08:31:00,77.7,74.9,29.85,WNW,292,0.0,-999.0,91,-99.99,,,0.00,Acu-Link.com,2013-08-30 13:31:00,
2013-08-30 08:46:00,79.5,75.3,29.84,SSW,202,2.7,-999.0,87,-99.99,,,0.00,Acu-Link.com,2013-08-30 13:46:00,
2013-08-30 09:01:00,80.6,76.0,29.85,South,180,0.0,-999.0,86,-99.99,,,0.00,Acu-Link.com,2013-08-30 14:01:00,
2013-08-30 09:16:00,82.2,75.8,29.85,SW,225,0.0,-999.0,81,-99.99,,,0.00,Acu-Link.com,2013-08-30 14:16:00,
2013-08-30 09:31:00,85.5,77.0,29.86,SE,135,0.0,-999.0,76,-99.99,,,0.00,Acu-Link.com,2013-08-30 14:31:00,
2013-08-30 09:47:00,88.3,77.7,29.85,SSE,157,0.0,-999.0,71,-99.99,,,0.00,Acu-Link.com,2013-08-30 14:47:00,
2013-08-30 10:02:00,90.0,77.1,29.85,SSE,157,1.7,-999.0,66,-99.99,,,0.00,Acu-Link.com,2013-08-30 15:02:00,
2013-08-30 10:17:00,92.8,76.3,29.85,NNE,22,0.0,-999.0,59,-99.99,,,0.00,Acu-Link.com,2013-08-30 15:17:00,
2013-08-30 10:32:00,94.8,76.1,29.85,South,180,2.7,-999.0,55,-99.99,,,0.00,Acu-Link.com,2013-08-30 15:32:00,
2013-08-30 10:47:00,96.8,71.9,29.85,SSW,202,0.0,-999.0,45,-99.99,,,0.00,Acu-Link.com,2013-08-30 15:47:00,
2013-08-30 11:02:00,93.0,73.3,29.84,ENE,67,1.1,-999.0,53,-99.99,,,0.00,Acu-Link.com,2013-08-30 16:02:00,
2013-08-30 11:17:00,93.0,73.3,29.84,South,180,1.7,-999.0,53,-99.99,,,0.00,Acu-Link.com,2013-08-30 16:17:00,
2013-08-30 11:33:00,92.7,73.0,29.83,SW,225,2.2,-999.0,53,-99.99,,,0.00,Acu-Link.com,2013-08-30 16:33:00,
2013-08-30 11:48:00,93.7,73.4,29.83,SSE,157,2.2,-999.0,52,-99.99,,,0.00,Acu-Link.com,2013-08-30 16:48:00,
2013-08-30 12:03:00,96.4,71.5,29.83,NNW,337,3.7,-999.0,45,-99.99,,,0.00,Acu-Link.com,2013-08-30 17:03:00,
2013-08-30 12:18:00,98.1,72.4,29.82,East,90,3.2,-999.0,44,-99.99,,,0.00,Acu-Link.com,2013-08-30 17:18:00,
2013-08-30 12:33:00,94.1,72.0,29.83,NNW,337,1.1,-999.0,49,-99.99,,,0.00,Acu-Link.com,2013-08-30 17:33:00,
2013-08-30 12:48:00,96.3,72.1,29.82,NE,45,0.0,-999.0,46,-99.99,,,0.00,Acu-Link.com,2013-08-30 17:48:00,
2013-08-30 13:03:00,94.5,74.7,29.81,NNE,22,3.2,-999.0,53,-99.99,,,0.00,Acu-Link.com,2013-08-30 18:03:00,
2013-08-30 13:18:00,98.4,74.0,29.81,East,90,6.3,-999.0,46,-99.99,,,0.00,Acu-Link.com,2013-08-30 18:18:00,
2013-08-30 13:33:00,97.9,74.2,29.83,East,90,5.3,-999.0,47,-99.99,,,0.00,Acu-Link.com,2013-08-30 18:33:00,
2013-08-30 13:49:00,98.1,74.4,29.83,NE,45,2.2,-999.0,47,-99.99,,,0.00,Acu-Link.com,2013-08-30 18:49:00,
2013-08-30 14:04:00,97.0,74.0,29.81,ENE,67,2.2,-999.0,48,-99.99,,,0.00,Acu-Link.com,2013-08-30 19:04:00,
2013-08-30 14:19:00,99.9,74.0,29.79,ESE,112,4.2,-999.0,44,-99.99,,,0.00,Acu-Link.com,2013-08-30 19:19:00,
2013-08-30 14:34:00,97.7,72.7,29.78,NNW,337,1.7,-999.0,45,-99.99,,,0.00,Acu-Link.com,2013-08-30 19:34:00,
2013-08-30 14:49:00,99.3,72.1,29.79,East,90,5.8,-999.0,42,-99.99,,,0.00,Acu-Link.com,2013-08-30 19:49:00,
2013-08-30 15:04:00,100.0,70.5,29.80,SE,135,8.9,-999.0,39,-99.99,,,0.00,Acu-Link.com,2013-08-30 20:04:00,
2013-08-30 15:19:00,98.1,71.7,29.81,ESE,112,3.7,-999.0,43,-99.99,,,0.00,Acu-Link.com,2013-08-30 20:19:00,
2013-08-30 15:34:00,97.5,70.5,29.80,ENE,67,2.7,-999.0,42,-99.99,,,0.00,Acu-Link.com,2013-08-30 20:34:00,
2013-08-30 15:49:00,96.6,71.7,29.77,ESE,112,5.3,-999.0,45,-99.99,,,0.00,Acu-Link.com,2013-08-30 20:49:00,
2013-08-30 16:05:00,96.4,71.5,29.77,SSE,157,2.7,-999.0,45,-99.99,,,0.00,Acu-Link.com,2013-08-30 21:05:00,
2013-08-30 16:20:00,96.1,71.9,29.78,NE,45,4.7,-999.0,46,-99.99,,,0.00,Acu-Link.com,2013-08-30 21:20:00,
2013-08-30 16:35:00,96.4,72.8,29.76,ESE,112,3.7,-999.0,47,-99.99,,,0.00,Acu-Link.com,2013-08-30 21:35:00,
2013-08-30 16:50:00,96.1,71.9,29.75,ESE,112,5.8,-999.0,46,-99.99,,,0.00,Acu-Link.com,2013-08-30 21:50:00,
2013-08-30 17:05:00,94.8,72.6,29.73,East,90,6.8,-999.0,49,-99.99,,,0.00,Acu-Link.com,2013-08-30 22:05:00,
2013-08-30 17:20:00,93.9,73.0,29.73,East,90,7.3,-999.0,51,-99.99,,,0.00,Acu-Link.com,2013-08-30 22:20:00,
2013-08-30 17:35:00,93.0,73.3,29.72,SE,135,3.2,-999.0,53,-99.99,,,0.00,Acu-Link.com,2013-08-30 22:35:00,
2013-08-30 17:50:00,92.7,73.0,29.73,East,90,12.5,-999.0,53,-99.99,,,0.00,Acu-Link.com,2013-08-30 22:50:00,
2013-08-30 18:05:00,91.8,73.3,29.73,ESE,112,5.3,-999.0,55,-99.99,,,0.00,Acu-Link.com,2013-08-30 23:05:00,
2013-08-30 18:21:00,90.9,73.5,29.75,SE,135,5.3,-999.0,57,-99.99,,,0.00,Acu-Link.com,2013-08-30 23:21:00,
2013-08-30 18:36:00,90.3,73.5,29.76,East,90,6.3,-999.0,58,-99.99,,,0.00,Acu-Link.com,2013-08-30 23:36:00,
2013-08-30 18:51:00,89.1,73.4,29.74,WSW,247,5.8,-999.0,60,-99.99,,,0.00,Acu-Link.com,2013-08-30 23:51:00,
2013-08-30 19:06:00,89.4,73.1,29.74,ESE,112,4.7,-999.0,59,-99.99,,,0.00,Acu-Link.com,2013-08-31 00:06:00,
2013-08-30 19:21:00,87.6,72.9,29.73,ESE,112,2.7,-999.0,62,-99.99,,,0.00,Acu-Link.com,2013-08-31 00:21:00,
2013-08-30 19:36:00,86.5,73.3,29.73,SE,135,4.7,-999.0,65,-99.99,,,0.00,Acu-Link.com,2013-08-31 00:36:00,
2013-08-30 19:51:00,85.8,74.0,29.74,ESE,112,5.3,-999.0,68,-99.99,,,0.00,Acu-Link.com,2013-08-31 00:51:00,
2013-08-30 20:06:00,85.3,74.4,29.77,ESE,112,2.2,-999.0,70,-99.99,,,0.00,Acu-Link.com,2013-08-31 01:06:00,
2013-08-30 20:21:00,84.6,73.7,29.75,SE,135,2.7,-999.0,70,-99.99,,,0.00,Acu-Link.com,2013-08-31 01:21:00,
2013-08-30 20:37:00,84.0,73.1,29.73,SE,135,2.7,-999.0,70,-99.99,,,0.00,Acu-Link.com,2013-08-31 01:37:00,
2013-08-30 20:52:00,83.7,73.3,29.74,ESE,112,3.2,-999.0,71,-99.99,,,0.00,Acu-Link.com,2013-08-31 01:52:00,
2013-08-30 21:07:00,83.1,72.7,29.73,SSE,157,0.0,-999.0,71,-99.99,,,0.00,Acu-Link.com,2013-08-31 02:07:00,
2013-08-30 21:22:00,82.8,72.8,29.73,SSW,202,2.7,-999.0,72,-99.99,,,0.00,Acu-Link.com,2013-08-31 02:22:00,
2013-08-30 21:37:00,82.6,72.6,29.73,SE,135,2.2,-999.0,72,-99.99,,,0.00,Acu-Link.com,2013-08-31 02:37:00,
2013-08-30 21:52:00,82.0,72.5,29.73,NE,45,4.2,-999.0,73,-99.99,,,0.00,Acu-Link.com,2013-08-31 02:52:00,
2013-08-30 22:07:00,82.0,72.9,29.74,South,180,2.7,-999.0,74,-99.99,,,0.00,Acu-Link.com,2013-08-31 03:07:00,
2013-08-30 22:22:00,81.5,72.4,29.77,ESE,112,2.7,-999.0,74,-99.99,,,0.00,Acu-Link.com,2013-08-31 03:22:00,
2013-08-30 22:37:00,81.5,72.8,29.76,East,90,3.7,-999.0,75,-99.99,,,0.00,Acu-Link.com,2013-08-31 03:37:00,
2013-08-30 22:53:00,81.1,72.8,29.75,SSE,157,2.2,-999.0,76,-99.99,,,0.00,Acu-Link.com,2013-08-31 03:53:00,
2013-08-30 23:08:00,81.3,73.0,29.74,SSE,157,3.2,-999.0,76,-99.99,,,0.00,Acu-Link.com,2013-08-31 04:08:00,
2013-08-30 23:23:00,80.8,72.5,29.74,East,90,2.7,-999.0,76,-99.99,,,0.00,Acu-Link.com,2013-08-31 04:23:00,
2013-08-30 23:38:00,81.0,72.7,29.74,SSE,157,1.7,-999.0,76,-99.99,,,0.00,Acu-Link.com,2013-08-31 04:38:00,
2013-08-30 23:53:00,80.8,72.5,29.73,SE,135,1.7,-999.0,76,-99.99,,,0.00,Acu-Link.com,2013-08-31 04:53:00,